sensor_id;sensor_type;location;lat;lon;timestamp;P1;durP1;ratioP1;P2;durP2;ratioP2
44706;SDS011;30433;45.596;8.408;2022-07-06T00:05:13;4.13;;;1.25;;
44706;SDS011;30433;45.596;8.408;2022-07-06T00:11:15;2.85;;;1.00;;
44706;SDS011;30433;45.596;8.408;2022-07-06T00:17:17;3.88;;;1.20;;
44706;SDS011;30433;45.596;8.408;2022-07-06T00:23:21;2.53;;;1.10;;
44706;SDS011;30433;45.596;8.408;2022-07-06T00:29:23;2.15;;;1.20;;
44706;SDS011;30433;45.596;8.408;2022-07-06T00:35:25;5.13;;;1.77;;
44706;SDS011;30433;45.596;8.408;2022-07-06T00:41:29;2.63;;;1.10;;
44706;SDS011;30433;45.596;8.408;2022-07-06T00:47:31;1.85;;;1.13;;
44706;SDS011;30433;45.596;8.408;2022-07-06T00:53:33;1.88;;;1.27;;
44706;SDS011;30433;45.596;8.408;2022-07-06T00:59:37;4.32;;;1.30;;
44706;SDS011;30433;45.596;8.408;2022-07-06T01:05:39;1.83;;;1.00;;
44706;SDS011;30433;45.596;8.408;2022-07-06T01:17:46;1.50;;;1.00;;
44706;SDS011;30433;45.596;8.408;2022-07-06T01:23:50;1.85;;;0.95;;
44706;SDS011;30433;45.596;8.408;2022-07-06T01:29:52;1.95;;;1.13;;
44706;SDS011;30433;45.596;8.408;2022-07-06T01:41:58;3.95;;;1.40;;
44706;SDS011;30433;45.596;8.408;2022-07-06T01:48:00;2.13;;;1.02;;
44706;SDS011;30433;45.596;8.408;2022-07-06T01:54:06;4.13;;;1.30;;
44706;SDS011;30433;45.596;8.408;2022-07-06T02:00:09;2.03;;;1.20;;
44706;SDS011;30433;45.596;8.408;2022-07-06T02:06:12;3.38;;;1.10;;
44706;SDS011;30433;45.596;8.408;2022-07-06T02:12:14;2.10;;;1.02;;
44706;SDS011;30433;45.596;8.408;2022-07-06T02:18:17;1.38;;;1.13;;
44706;SDS011;30433;45.596;8.408;2022-07-06T02:24:19;1.52;;;1.20;;
44706;SDS011;30433;45.596;8.408;2022-07-06T02:30:22;3.38;;;1.20;;
44706;SDS011;30433;45.596;8.408;2022-07-06T02:36:25;1.40;;;1.08;;
44706;SDS011;30433;45.596;8.408;2022-07-06T02:42:27;1.42;;;0.98;;
44706;SDS011;30433;45.596;8.408;2022-07-06T02:48:29;6.20;;;1.20;;
44706;SDS011;30433;45.596;8.408;2022-07-06T02:54:32;1.90;;;1.00;;
44706;SDS011;30433;45.596;8.408;2022-07-06T03:00:35;4.38;;;1.30;;
44706;SDS011;30433;45.596;8.408;2022-07-06T03:06:37;4.40;;;1.13;;
44706;SDS011;30433;45.596;8.408;2022-07-06T03:12:40;1.38;;;1.08;;
44706;SDS011;30433;45.596;8.408;2022-07-06T03:18:42;2.45;;;1.15;;
44706;SDS011;30433;45.596;8.408;2022-07-06T03:24:44;2.60;;;1.20;;
44706;SDS011;30433;45.596;8.408;2022-07-06T03:30:48;1.90;;;1.35;;
44706;SDS011;30433;45.596;8.408;2022-07-06T03:36:50;4.55;;;1.70;;
44706;SDS011;30433;45.596;8.408;2022-07-06T03:42:52;2.40;;;1.20;;
44706;SDS011;30433;45.596;8.408;2022-07-06T03:48:55;4.05;;;2.00;;
44706;SDS011;30433;45.596;8.408;2022-07-06T03:54:57;4.05;;;1.60;;
44706;SDS011;30433;45.596;8.408;2022-07-06T04:00:59;2.95;;;1.55;;
44706;SDS011;30433;45.596;8.408;2022-07-06T04:07:03;3.63;;;1.83;;
44706;SDS011;30433;45.596;8.408;2022-07-06T04:13:05;2.83;;;1.48;;
44706;SDS011;30433;45.596;8.408;2022-07-06T04:19:07;5.82;;;2.28;;
44706;SDS011;30433;45.596;8.408;2022-07-06T04:25:10;3.22;;;1.40;;
44706;SDS011;30433;45.596;8.408;2022-07-06T04:31:12;3.13;;;1.70;;
44706;SDS011;30433;45.596;8.408;2022-07-06T04:37:15;5.35;;;1.90;;
44706;SDS011;30433;45.596;8.408;2022-07-06T04:43:18;1.90;;;1.20;;
44706;SDS011;30433;45.596;8.408;2022-07-06T04:49:20;5.30;;;1.70;;
44706;SDS011;30433;45.596;8.408;2022-07-06T04:55:22;3.00;;;1.45;;
44706;SDS011;30433;45.596;8.408;2022-07-06T05:01:26;5.03;;;1.58;;
44706;SDS011;30433;45.596;8.408;2022-07-06T05:07:28;3.30;;;1.50;;
44706;SDS011;30433;45.596;8.408;2022-07-06T05:13:32;4.47;;;1.67;;
44706;SDS011;30433;45.596;8.408;2022-07-06T05:19:35;6.10;;;1.83;;
44706;SDS011;30433;45.596;8.408;2022-07-06T05:25:37;4.00;;;1.30;;
44706;SDS011;30433;45.596;8.408;2022-07-06T05:37:43;9.60;;;3.08;;
44706;SDS011;30433;45.596;8.408;2022-07-06T05:43:45;3.75;;;1.27;;
44706;SDS011;30433;45.596;8.408;2022-07-06T05:56:07;3.53;;;1.30;;
44706;SDS011;30433;45.596;8.408;2022-07-06T06:02:09;4.53;;;1.50;;
44706;SDS011;30433;45.596;8.408;2022-07-06T06:14:15;5.22;;;1.23;;
44706;SDS011;30433;45.596;8.408;2022-07-06T06:20:17;2.20;;;1.30;;
44706;SDS011;30433;45.596;8.408;2022-07-06T06:26:19;5.78;;;1.40;;
44706;SDS011;30433;45.596;8.408;2022-07-06T06:32:22;5.72;;;1.30;;
44706;SDS011;30433;45.596;8.408;2022-07-06T06:38:24;6.22;;;1.60;;
44706;SDS011;30433;45.596;8.408;2022-07-06T06:44:27;6.32;;;2.60;;
44706;SDS011;30433;45.596;8.408;2022-07-06T06:50:31;7.22;;;1.55;;
44706;SDS011;30433;45.596;8.408;2022-07-06T06:56:33;2.97;;;1.67;;
44706;SDS011;30433;45.596;8.408;2022-07-06T07:02:35;4.78;;;1.75;;
44706;SDS011;30433;45.596;8.408;2022-07-06T07:08:40;1.88;;;1.45;;
44706;SDS011;30433;45.596;8.408;2022-07-06T07:14:42;5.93;;;1.70;;
44706;SDS011;30433;45.596;8.408;2022-07-06T07:20:44;2.58;;;1.30;;
44706;SDS011;30433;45.596;8.408;2022-07-06T07:26:47;2.70;;;1.30;;
44706;SDS011;30433;45.596;8.408;2022-07-06T07:32:49;3.15;;;1.35;;
44706;SDS011;30433;45.596;8.408;2022-07-06T07:38:52;4.53;;;1.70;;
44706;SDS011;30433;45.596;8.408;2022-07-06T07:44:55;4.55;;;1.58;;
44706;SDS011;30433;45.596;8.408;2022-07-06T07:50:57;5.53;;;1.58;;
44706;SDS011;30433;45.596;8.408;2022-07-06T07:56:59;6.10;;;1.95;;
44706;SDS011;30433;45.596;8.408;2022-07-06T08:03:03;2.78;;;1.63;;
44706;SDS011;30433;45.596;8.408;2022-07-06T08:09:05;2.13;;;1.30;;
44706;SDS011;30433;45.596;8.408;2022-07-06T08:15:08;5.57;;;1.90;;
44706;SDS011;30433;45.596;8.408;2022-07-06T08:21:11;6.80;;;1.65;;
44706;SDS011;30433;45.596;8.408;2022-07-06T08:27:13;4.18;;;1.77;;
44706;SDS011;30433;45.596;8.408;2022-07-06T08:33:15;4.32;;;1.55;;
44706;SDS011;30433;45.596;8.408;2022-07-06T08:39:19;8.75;;;1.90;;
44706;SDS011;30433;45.596;8.408;2022-07-06T08:45:21;2.60;;;1.88;;
44706;SDS011;30433;45.596;8.408;2022-07-06T08:51:24;5.72;;;1.70;;
44706;SDS011;30433;45.596;8.408;2022-07-06T08:57:28;2.97;;;1.70;;
44706;SDS011;30433;45.596;8.408;2022-07-06T09:03:30;4.38;;;1.90;;
44706;SDS011;30433;45.596;8.408;2022-07-06T09:09:33;4.93;;;2.10;;
44706;SDS011;30433;45.596;8.408;2022-07-06T09:15:39;2.75;;;1.88;;
44706;SDS011;30433;45.596;8.408;2022-07-06T09:21:41;4.38;;;2.08;;
44706;SDS011;30433;45.596;8.408;2022-07-06T09:27:43;7.50;;;2.33;;
44706;SDS011;30433;45.596;8.408;2022-07-06T09:33:55;5.80;;;2.53;;
44706;SDS011;30433;45.596;8.408;2022-07-06T09:39:58;5.05;;;2.10;;
44706;SDS011;30433;45.596;8.408;2022-07-06T09:46:00;4.60;;;2.15;;
44706;SDS011;30433;45.596;8.408;2022-07-06T09:52:05;3.95;;;2.50;;
44706;SDS011;30433;45.596;8.408;2022-07-06T09:58:09;4.70;;;2.08;;
44706;SDS011;30433;45.596;8.408;2022-07-06T10:04:12;5.63;;;2.42;;
44706;SDS011;30433;45.596;8.408;2022-07-06T10:10:16;6.95;;;2.30;;
44706;SDS011;30433;45.596;8.408;2022-07-06T10:16:19;4.47;;;2.63;;
44706;SDS011;30433;45.596;8.408;2022-07-06T10:22:22;5.13;;;2.15;;
44706;SDS011;30433;45.596;8.408;2022-07-06T10:28:26;6.03;;;2.60;;
44706;SDS011;30433;45.596;8.408;2022-07-06T10:34:28;3.85;;;2.20;;
44706;SDS011;30433;45.596;8.408;2022-07-06T10:40:33;3.75;;;2.60;;
44706;SDS011;30433;45.596;8.408;2022-07-06T10:46:56;3.85;;;2.30;;
44706;SDS011;30433;45.596;8.408;2022-07-06T10:52:59;5.32;;;2.80;;
44706;SDS011;30433;45.596;8.408;2022-07-06T10:59:02;3.67;;;2.70;;
44706;SDS011;30433;45.596;8.408;2022-07-06T11:05:08;5.60;;;2.55;;
44706;SDS011;30433;45.596;8.408;2022-07-06T11:11:12;3.75;;;2.50;;
44706;SDS011;30433;45.596;8.408;2022-07-06T11:17:17;4.53;;;2.60;;
44706;SDS011;30433;45.596;8.408;2022-07-06T11:23:21;4.95;;;2.63;;
44706;SDS011;30433;45.596;8.408;2022-07-06T11:29:23;6.03;;;2.70;;
44706;SDS011;30433;45.596;8.408;2022-07-06T11:35:26;2.88;;;2.00;;
44706;SDS011;30433;45.596;8.408;2022-07-06T11:41:30;3.45;;;2.53;;
44706;SDS011;30433;45.596;8.408;2022-07-06T11:47:32;3.28;;;2.40;;
44706;SDS011;30433;45.596;8.408;2022-07-06T11:53:35;4.50;;;2.30;;
44706;SDS011;30433;45.596;8.408;2022-07-06T11:59:39;6.10;;;2.20;;
44706;SDS011;30433;45.596;8.408;2022-07-06T12:05:46;6.68;;;2.60;;
44706;SDS011;30433;45.596;8.408;2022-07-06T12:11:48;3.97;;;2.20;;
44706;SDS011;30433;45.596;8.408;2022-07-06T12:17:51;5.68;;;2.50;;
44706;SDS011;30433;45.596;8.408;2022-07-06T12:23:54;5.43;;;2.50;;
44706;SDS011;30433;45.596;8.408;2022-07-06T12:30:04;4.35;;;2.03;;
44706;SDS011;30433;45.596;8.408;2022-07-06T12:36:13;5.10;;;2.13;;
44706;SDS011;30433;45.596;8.408;2022-07-06T12:42:16;6.03;;;2.50;;
44706;SDS011;30433;45.596;8.408;2022-07-06T12:48:20;4.70;;;2.25;;
44706;SDS011;30433;45.596;8.408;2022-07-06T12:54:24;4.22;;;2.53;;
44706;SDS011;30433;45.596;8.408;2022-07-06T13:00:27;4.47;;;2.45;;
44706;SDS011;30433;45.596;8.408;2022-07-06T13:06:30;4.60;;;2.40;;
44706;SDS011;30433;45.596;8.408;2022-07-06T13:12:35;5.45;;;1.92;;
44706;SDS011;30433;45.596;8.408;2022-07-06T13:18:38;4.35;;;2.22;;
44706;SDS011;30433;45.596;8.408;2022-07-06T13:24:40;3.60;;;1.80;;
44706;SDS011;30433;45.596;8.408;2022-07-06T13:30:44;6.13;;;2.40;;
44706;SDS011;30433;45.596;8.408;2022-07-06T13:36:46;3.20;;;2.22;;
44706;SDS011;30433;45.596;8.408;2022-07-06T13:42:48;4.28;;;1.98;;
44706;SDS011;30433;45.596;8.408;2022-07-06T13:48:52;3.25;;;2.28;;
44706;SDS011;30433;45.596;8.408;2022-07-06T13:54:54;5.18;;;2.45;;
44706;SDS011;30433;45.596;8.408;2022-07-06T14:00:56;2.83;;;2.10;;
44706;SDS011;30433;45.596;8.408;2022-07-06T14:06:59;2.92;;;2.03;;
44706;SDS011;30433;45.596;8.408;2022-07-06T14:13:02;3.40;;;2.03;;
44706;SDS011;30433;45.596;8.408;2022-07-06T14:19:04;5.78;;;2.03;;
44706;SDS011;30433;45.596;8.408;2022-07-06T14:25:08;4.75;;;2.20;;
44706;SDS011;30433;45.596;8.408;2022-07-06T14:31:10;4.43;;;2.20;;
44706;SDS011;30433;45.596;8.408;2022-07-06T14:37:12;3.33;;;2.15;;
44706;SDS011;30433;45.596;8.408;2022-07-06T14:43:16;2.75;;;2.00;;
44706;SDS011;30433;45.596;8.408;2022-07-06T14:49:18;3.35;;;2.30;;
44706;SDS011;30433;45.596;8.408;2022-07-06T14:55:20;5.10;;;2.00;;
44706;SDS011;30433;45.596;8.408;2022-07-06T15:01:24;3.55;;;2.20;;
44706;SDS011;30433;45.596;8.408;2022-07-06T15:07:26;7.35;;;2.50;;
44706;SDS011;30433;45.596;8.408;2022-07-06T15:20:26;4.13;;;2.00;;
44706;SDS011;30433;45.596;8.408;2022-07-06T15:26:28;3.95;;;2.15;;
44706;SDS011;30433;45.596;8.408;2022-07-06T15:32:30;2.97;;;2.00;;
44706;SDS011;30433;45.596;8.408;2022-07-06T15:38:34;4.90;;;2.08;;
44706;SDS011;30433;45.596;8.408;2022-07-06T15:44:36;6.20;;;2.10;;
44706;SDS011;30433;45.596;8.408;2022-07-06T15:50:39;4.50;;;2.03;;
44706;SDS011;30433;45.596;8.408;2022-07-06T15:56:42;5.22;;;2.47;;
44706;SDS011;30433;45.596;8.408;2022-07-06T16:02:44;8.25;;;2.38;;
44706;SDS011;30433;45.596;8.408;2022-07-06T16:08:46;4.75;;;2.00;;
44706;SDS011;30433;45.596;8.408;2022-07-06T16:14:50;4.38;;;2.10;;
44706;SDS011;30433;45.596;8.408;2022-07-06T16:20:52;9.95;;;2.28;;
44706;SDS011;30433;45.596;8.408;2022-07-06T16:26:54;5.03;;;2.00;;
44706;SDS011;30433;45.596;8.408;2022-07-06T16:32:57;3.47;;;1.90;;
44706;SDS011;30433;45.596;8.408;2022-07-06T16:39:00;3.97;;;2.15;;
44706;SDS011;30433;45.596;8.408;2022-07-06T16:45:02;4.38;;;1.90;;
44706;SDS011;30433;45.596;8.408;2022-07-06T16:51:06;4.53;;;2.17;;
44706;SDS011;30433;45.596;8.408;2022-07-06T16:57:08;13.23;;;2.67;;
44706;SDS011;30433;45.596;8.408;2022-07-06T17:03:11;5.05;;;1.77;;
44706;SDS011;30433;45.596;8.408;2022-07-06T17:09:14;2.70;;;1.80;;
44706;SDS011;30433;45.596;8.408;2022-07-06T17:15:16;2.83;;;1.80;;
44706;SDS011;30433;45.596;8.408;2022-07-06T17:21:18;2.60;;;1.70;;
44706;SDS011;30433;45.596;8.408;2022-07-06T17:27:23;2.42;;;1.67;;
44706;SDS011;30433;45.596;8.408;2022-07-06T17:33:25;6.35;;;2.15;;
44706;SDS011;30433;45.596;8.408;2022-07-06T17:39:27;2.40;;;2.05;;
44706;SDS011;30433;45.596;8.408;2022-07-06T17:45:31;4.20;;;1.55;;
44706;SDS011;30433;45.596;8.408;2022-07-06T17:51:34;2.58;;;1.75;;
44706;SDS011;30433;45.596;8.408;2022-07-06T17:57:37;3.00;;;2.20;;
44706;SDS011;30433;45.596;8.408;2022-07-06T18:03:40;3.15;;;1.90;;
44706;SDS011;30433;45.596;8.408;2022-07-06T18:09:42;2.28;;;1.83;;
44706;SDS011;30433;45.596;8.408;2022-07-06T18:15:44;3.03;;;1.90;;
44706;SDS011;30433;45.596;8.408;2022-07-06T18:21:48;5.25;;;1.70;;
44706;SDS011;30433;45.596;8.408;2022-07-06T18:27:50;3.83;;;2.00;;
44706;SDS011;30433;45.596;8.408;2022-07-06T18:33:53;2.97;;;2.10;;
44706;SDS011;30433;45.596;8.408;2022-07-06T18:39:57;2.80;;;1.92;;
44706;SDS011;30433;45.596;8.408;2022-07-06T18:46:00;3.65;;;2.10;;
44706;SDS011;30433;45.596;8.408;2022-07-06T18:52:03;2.78;;;1.95;;
44706;SDS011;30433;45.596;8.408;2022-07-06T18:58:09;2.63;;;2.00;;
44706;SDS011;30433;45.596;8.408;2022-07-06T19:04:11;2.30;;;1.90;;
44706;SDS011;30433;45.596;8.408;2022-07-06T19:10:13;8.57;;;2.53;;
44706;SDS011;30433;45.596;8.408;2022-07-06T19:16:17;12.50;;;2.58;;
44706;SDS011;30433;45.596;8.408;2022-07-06T19:22:19;4.05;;;2.38;;
44706;SDS011;30433;45.596;8.408;2022-07-06T19:28:21;3.42;;;2.50;;
44706;SDS011;30433;45.596;8.408;2022-07-06T19:34:26;6.75;;;2.95;;
44706;SDS011;30433;45.596;8.408;2022-07-06T19:40:28;10.68;;;2.50;;
44706;SDS011;30433;45.596;8.408;2022-07-06T19:46:30;6.03;;;3.38;;
44706;SDS011;30433;45.596;8.408;2022-07-06T19:52:34;9.45;;;3.00;;
44706;SDS011;30433;45.596;8.408;2022-07-06T19:58:36;4.30;;;2.55;;
44706;SDS011;30433;45.596;8.408;2022-07-06T20:04:38;4.93;;;2.88;;
44706;SDS011;30433;45.596;8.408;2022-07-06T20:10:42;6.32;;;2.95;;
44706;SDS011;30433;45.596;8.408;2022-07-06T20:16:44;4.50;;;2.65;;
44706;SDS011;30433;45.596;8.408;2022-07-06T20:22:46;5.85;;;3.08;;
44706;SDS011;30433;45.596;8.408;2022-07-06T20:28:50;5.57;;;2.63;;
44706;SDS011;30433;45.596;8.408;2022-07-06T20:34:52;3.42;;;2.50;;
44706;SDS011;30433;45.596;8.408;2022-07-06T20:40:55;4.28;;;2.60;;
44706;SDS011;30433;45.596;8.408;2022-07-06T20:46:58;3.85;;;2.72;;
44706;SDS011;30433;45.596;8.408;2022-07-06T20:53:00;3.55;;;2.60;;
44706;SDS011;30433;45.596;8.408;2022-07-06T20:59:03;3.35;;;2.30;;
44706;SDS011;30433;45.596;8.408;2022-07-06T21:05:07;4.85;;;2.40;;
44706;SDS011;30433;45.596;8.408;2022-07-06T21:11:09;3.30;;;2.38;;
44706;SDS011;30433;45.596;8.408;2022-07-06T21:17:13;3.95;;;2.30;;
44706;SDS011;30433;45.596;8.408;2022-07-06T21:23:17;8.23;;;2.63;;
44706;SDS011;30433;45.596;8.408;2022-07-06T21:29:19;4.97;;;2.20;;
44706;SDS011;30433;45.596;8.408;2022-07-06T21:35:21;3.85;;;2.00;;
44706;SDS011;30433;45.596;8.408;2022-07-06T21:41:25;4.30;;;2.20;;
44706;SDS011;30433;45.596;8.408;2022-07-06T21:47:27;3.17;;;2.38;;
44706;SDS011;30433;45.596;8.408;2022-07-06T21:53:29;2.97;;;1.90;;
44706;SDS011;30433;45.596;8.408;2022-07-06T21:59:32;3.05;;;1.90;;
44706;SDS011;30433;45.596;8.408;2022-07-06T22:05:34;3.08;;;2.13;;
44706;SDS011;30433;45.596;8.408;2022-07-06T22:11:37;2.50;;;1.90;;
44706;SDS011;30433;45.596;8.408;2022-07-06T22:17:40;4.68;;;2.15;;
44706;SDS011;30433;45.596;8.408;2022-07-06T22:23:42;3.15;;;1.90;;
44706;SDS011;30433;45.596;8.408;2022-07-06T22:29:45;3.70;;;1.95;;
44706;SDS011;30433;45.596;8.408;2022-07-06T22:35:49;3.40;;;2.17;;
44706;SDS011;30433;45.596;8.408;2022-07-06T22:41:51;3.30;;;2.20;;
44706;SDS011;30433;45.596;8.408;2022-07-06T22:47:53;3.17;;;2.05;;
44706;SDS011;30433;45.596;8.408;2022-07-06T22:53:57;2.85;;;1.88;;
44706;SDS011;30433;45.596;8.408;2022-07-06T23:00:00;2.78;;;2.17;;
44706;SDS011;30433;45.596;8.408;2022-07-06T23:06:02;2.95;;;2.30;;
44706;SDS011;30433;45.596;8.408;2022-07-06T23:12:06;2.78;;;2.30;;
44706;SDS011;30433;45.596;8.408;2022-07-06T23:18:08;4.10;;;2.30;;
44706;SDS011;30433;45.596;8.408;2022-07-06T23:30:14;4.63;;;2.28;;
44706;SDS011;30433;45.596;8.408;2022-07-06T23:36:16;3.30;;;1.98;;
44706;SDS011;30433;45.596;8.408;2022-07-06T23:42:19;4.22;;;2.85;;
44706;SDS011;30433;45.596;8.408;2022-07-06T23:54:25;4.82;;;2.00;;
